This is the latest recevied weather packets stored in our database for station/object IZ1UQG-N2. If no packets are shown the sender has not sent any weather packets the latest 10 day(s).
| Time | Temp. | Humidity | Pressure | Rain* | Wind** | Luminosity | Snow |
|---|---|---|---|---|---|---|---|
| 1777634407 | 16.67° C | 40% | 1025.8 hPa | 0 mm | - | 489 W/m² | - |
| 1777634367 | 16.67° C | 40% | 1025.8 hPa | 0 mm | - | 441 W/m² | - |
| 1777634308 | 16.67° C | 40% | 1025.9 hPa | 0 mm | - | 468 W/m² | - |
| 1777634258 | 16.67° C | 40% | 1025.8 hPa | 0 mm | - | 526 W/m² | - |
| 1777634248 | 16.67° C | 40% | 1025.9 hPa | 0 mm | - | 489 W/m² | - |
| 1777634227 | 16.67° C | 40% | 1025.9 hPa | 0 mm | - | 489 W/m² | - |
| 1777634187 | 16.67° C | 40% | 1025.9 hPa | 0 mm | - | 469 W/m² | - |
| 1777634138 | 16.67° C | 39% | 1025.9 hPa | 0 mm | - | 531 W/m² | - |
| 1777634127 | 16.67° C | 40% | 1025.8 hPa | 0 mm | - | 559 W/m² | - |
| 1777634068 | 16.67° C | 39% | 1025.8 hPa | 0 mm | - | 482 W/m² | - |
| 1777634048 | 16.67° C | 39% | 1025.8 hPa | 0 mm | - | 482 W/m² | - |
| 1777634008 | 16.67° C | 40% | 1025.8 hPa | 0 mm | - | 526 W/m² | - |
| 1777633947 | 16.67° C | 40% | 1025.9 hPa | 0 mm | - | 512 W/m² | - |
| 1777633938 | 16.67° C | 40% | 1026 hPa | 0 mm | - | 712 W/m² | - |
| 1777633887 | 16.67° C | 39% | 1025.9 hPa | 0 mm | - | 531 W/m² | - |
| 1777633868 | 16.67° C | 39% | 1025.9 hPa | 0 mm | - | 531 W/m² | - |
| 1777633828 | 16.67° C | 39% | 1026 hPa | 0 mm | - | 621 W/m² | - |
| 1777633768 | 16.67° C | 39% | 1026 hPa | 0 mm | - | 664 W/m² | - |
| 1777633757 | 16.11° C | 40% | 1026.1 hPa | 0 mm | - | 715 W/m² | - |
| 1777633707 | 16.67° C | 40% | 1026 hPa | 0 mm | - | 712 W/m² | - |
| 1777633687 | 16.67° C | 40% | 1026 hPa | 0 mm | - | 712 W/m² | - |
| 1777633657 | 16.11° C | 39% | 1026.3 hPa | 0 mm | - | 958 W/m² | - |
| 1777633648 | 16.67° C | 40% | 1026.2 hPa | 0 mm | - | 680 W/m² | - |
| 1777633587 | 16.11° C | 40% | 1026.1 hPa | 0 mm | - | 628 W/m² | - |
| 1777633527 | 16.11° C | 40% | 1026.1 hPa | 0 mm | - | 715 W/m² | - |
* Rain latest hour (hover to see other rain measurements)
** Current wind speed in m/s (hover to see current wind gust speed)